Map

Track Data

SID SEASON NUMBER BASIN SUBBASIN NAME ISO_TIME NATURE LAT LON WMO_WIND WMO_PRES WMO_AGENCY TRACK_TYPE DIST2LAND LANDFALL IFLAG USA_AGENCY USA_ATCF_ID USA_LAT USA_LON USA_RECORD USA_STATUS USA_WIND USA_PRES USA_SSHS USA_R34_NE USA_R34_SE USA_R34_SW USA_R34_NW USA_R50_NE USA_R50_SE USA_R50_SW USA_R50_NW USA_R64_NE USA_R64_SE USA_R64_SW USA_R64_NW USA_POCI USA_ROCI USA_RMW USA_EYE TOKYO_LAT TOKYO_LON TOKYO_GRADE TOKYO_WIND TOKYO_PRES TOKYO_R50_DIR TOKYO_R50_LONG TOKYO_R50_SHORT TOKYO_R30_DIR TOKYO_R30_LONG TOKYO_R30_SHORT TOKYO_LAND CMA_LAT CMA_LON CMA_CAT CMA_WIND CMA_PRES HKO_LAT HKO_LON HKO_CAT HKO_WIND HKO_PRES NEWDELHI_LAT NEWDELHI_LON NEWDELHI_GRADE NEWDELHI_WIND NEWDELHI_PRES NEWDELHI_CI NEWDELHI_DP NEWDELHI_POCI REUNION_LAT REUNION_LON REUNION_TYPE REUNION_WIND REUNION_PRES REUNION_TNUM REUNION_CI REUNION_RMW REUNION_R34_NE REUNION_R34_SE REUNION_R34_SW REUNION_R34_NW REUNION_R50_NE REUNION_R50_SE REUNION_R50_SW REUNION_R50_NW REUNION_R64_NE REUNION_R64_SE REUNION_R64_SW REUNION_R64_NW BOM_LAT BOM_LON BOM_TYPE BOM_WIND BOM_PRES BOM_TNUM BOM_CI BOM_RMW BOM_R34_NE BOM_R34_SE BOM_R34_SW BOM_R34_NW BOM_R50_NE BOM_R50_SE BOM_R50_SW BOM_R50_NW BOM_R64_NE BOM_R64_SE BOM_R64_SW BOM_R64_NW BOM_ROCI BOM_POCI BOM_EYE BOM_POS_METHOD BOM_PRES_METHOD NADI_LAT NADI_LON NADI_CAT NADI_WIND NADI_PRES WELLINGTON_LAT WELLINGTON_LON WELLINGTON_WIND WELLINGTON_PRES DS824_LAT DS824_LON DS824_STAGE DS824_WIND DS824_PRES TD9636_LAT TD9636_LON TD9636_STAGE TD9636_WIND TD9636_PRES TD9635_LAT TD9635_LON TD9635_WIND TD9635_PRES TD9635_ROCI NEUMANN_LAT NEUMANN_LON NEUMANN_CLASS NEUMANN_WIND NEUMANN_PRES MLC_LAT MLC_LON MLC_CLASS MLC_WIND MLC_PRES USA_GUST BOM_GUST BOM_GUST_PER REUNION_GUST REUNION_GUST_PER USA_SEAHGT USA_SEARAD_NE USA_SEARAD_SE USA_SEARAD_SW USA_SEARAD_NW STORM_SPEED STORM_DIR
1922241N24130 1922 46 WP MM NOT_NAMED 1922-08-28 22:00:00 NR 23.9000 129.900 main 796 774 __________O___ -1 23.9000 129.900 4 6 347
1922241N24130 1922 46 WP MM NOT_NAMED 1922-08-29 00:00:00 NR 24.0808 129.861 main 774 753 __________P___ -1 24.0808 129.861 4 6 348
1922241N24130 1922 46 WP MM NOT_NAMED 1922-08-29 03:00:00 NR 24.3466 129.798 main 753 721 __________P___ -1 24.3466 129.798 4 5 347
1922241N24130 1922 46 WP MM NOT_NAMED 1922-08-29 06:00:00 NR 24.5989 129.725 main 721 699 __________P___ -1 24.5989 129.725 4 5 343
1922241N24130 1922 46 WP MM NOT_NAMED 1922-08-29 09:00:00 NR 24.8294 129.635 main 700 689 __________P___ -1 24.8294 129.635 4 5 340
1922241N24130 1922 46 WP MM NOT_NAMED 1922-08-29 10:00:00 NR 24.9000 129.600 main 689 678 __________O___ -1 24.9000 129.600 4 5 333
1922241N24130 1922 46 WP MM NOT_NAMED 1922-08-29 12:00:00 NR 25.0310 129.522 main 680 659 __________P___ -1 25.0310 129.522 4 4 327
1922241N24130 1922 46 WP MM NOT_NAMED 1922-08-29 15:00:00 NR 25.2086 129.379 main 659 642 __________P___ -1 25.2086 129.379 4 5 320
1922241N24130 1922 46 WP MM NOT_NAMED 1922-08-29 18:00:00 NR 25.3747 129.202 main 642 633 __________P___ -1 25.3747 129.202 4 5 313
1922241N24130 1922 46 WP MM NOT_NAMED 1922-08-29 21:00:00 NR 25.5419 128.983 main 636 625 __________P___ -1 25.5419 128.983 4 5 310
1922241N24130 1922 46 WP MM NOT_NAMED 1922-08-29 22:00:00 NR 25.6000 128.900 main 628 620 __________O___ -1 25.6000 128.900 4 6 307
1922241N24130 1922 46 WP MM NOT_NAMED 1922-08-30 00:00:00 NR 25.7225 128.720 main 623 608 __________P___ -1 25.7225 128.720 4 6 305
1922241N24130 1922 46 WP MM NOT_NAMED 1922-08-30 03:00:00 NR 25.9123 128.413 main 612 598 __________P___ -1 25.9123 128.413 4 7 304
1922241N24130 1922 46 WP MM NOT_NAMED 1922-08-30 06:00:00 NR 26.1122 128.074 main 602 589 __________P___ -1 26.1122 128.074 4 7 304
1922241N24130 1922 46 WP MM NOT_NAMED 1922-08-30 09:00:00 NR 26.3254 127.719 main 589 581 __________P___ -1 26.3254 127.719 4 8 304
1922241N24130 1922 46 WP MM NOT_NAMED 1922-08-30 10:00:00 NR 26.4000 127.600 main 581 565 __________O___ -1 26.4000 127.600 4 8 307
1922241N24130 1922 46 WP MM NOT_NAMED 1922-08-30 12:00:00 NR 26.5632 127.360 main 568 538 __________P___ -1 26.5632 127.360 4 8 308
1922241N24130 1922 46 WP MM NOT_NAMED 1922-08-30 15:00:00 NR 26.8208 126.992 main 538 507 __________P___ -1 26.8208 126.992 4 8 309
1922241N24130 1922 46 WP MM NOT_NAMED 1922-08-30 18:00:00 NR 27.0797 126.633 main 507 471 __________P___ -1 27.0797 126.633 4 8 309
1922241N24130 1922 46 WP MM NOT_NAMED 1922-08-30 21:00:00 NR 27.3243 126.301 main 471 457 __________P___ -1 27.3243 126.301 4 8 310
1922241N24130 1922 46 WP MM NOT_NAMED 1922-08-30 22:00:00 NR 27.4000 126.200 main 457 434 __________O___ -1 27.4000 126.200 4 6 311
1922241N24130 1922 46 WP MM NOT_NAMED 1922-08-31 00:00:00 NR 27.5333 126.031 main 434 407 __________P___ -1 27.5333 126.031 4 6 312
1922241N24130 1922 46 WP MM NOT_NAMED 1922-08-31 03:00:00 NR 27.7147 125.810 main 407 379 __________P___ -1 27.7147 125.810 4 5 313
1922241N24130 1922 46 WP MM NOT_NAMED 1922-08-31 06:00:00 NR 27.8822 125.603 main 379 357 __________P___ -1 27.8822 125.603 4 5 311
1922241N24130 1922 46 WP MM NOT_NAMED 1922-08-31 09:00:00 NR 28.0451 125.382 main 357 344 __________P___ -1 28.0451 125.382 4 5 309
1922241N24130 1922 46 WP MM NOT_NAMED 1922-08-31 10:00:00 NR 28.1000 125.300 main 344 321 __________O___ -1 28.1000 125.300 4 6 306
1922241N24130 1922 46 WP MM NOT_NAMED 1922-08-31 12:00:00 NR 28.2121 125.120 main 321 286 __________P___ -1 28.2121 125.120 4 6 304
1922241N24130 1922 46 WP MM NOT_NAMED 1922-08-31 15:00:00 NR 28.3851 124.814 main 286 252 __________P___ -1 28.3851 124.814 4 7 302
1922241N24130 1922 46 WP MM NOT_NAMED 1922-08-31 18:00:00 NR 28.5619 124.476 main 252 211 __________P___ -1 28.5619 124.476 4 7 300
1922241N24130 1922 46 WP MM NOT_NAMED 1922-08-31 21:00:00 NR 28.7405 124.120 main 211 199 __________P___ -1 28.7405 124.120 4 7 300
1922241N24130 1922 46 WP MM NOT_NAMED 1922-08-31 22:00:00 NR 28.8000 124.000 main 199 __________O___ -1 28.8000 124.000 4 7 300

Digital Typhoon Data and Search

About IBTrACS Database

This database is a web-friendly format of International Best Track Archive for Climate Stewardship (IBTrACS), a global best track data archive curated by NOAA dating back to 1842.

Updated: 2021-10-21